EGUB METAR and TAF | Updated Today

EGUB METAR

RAF Benson

Observation time: 20 min. ago

EGUB 292050Z 05001KT CAVOK 09/07 Q1009 NOSIG RMK BLU BLU

Need help? Read our tutorial on how to read METARs or read the parsed version below.

RAF Benson (EGUB) METAR

  • Weather conditions on Thu, 29 Sep 2022 20:50:00 +0000 (20 min. ago):
  • Present conditions: Dry
  • Clouds: Clear skies
  • Visibility: Greater than 10 km
  • Wind: 50 degrees at 1 knots
  • Temperature: 9 celsius
  • Dew point: 7 celsius
  • Pressure: 1009 millibars
  • Remarks: BLU BLU


Useful to know...

EGUB TAF

RAF Benson

TAF EGUB 291650Z 2918/2923 36003KT 9999 FEW020 SCT040 PROB40 2920/2923 5000 BR PROB30 2922/2923 4000 BR
Observation time: 4:20 hr. ago
Need help? Read our tutorial on how to read TAFs or read the parsed version below.

Parsed version of TAF for RAF Benson (EGUB)

  • From 29 September at 18:00 UTC, to day 29 of the month at 23:00 UTC
  • Clouds: A few at 610 meters; scattered at 1219 meters
  • Visibility: Greater than 10 km
  • Wind: 360 degrees at 3
  • From 29 September at 20:00 UTC, to day 29 of the month at 23:00 UTC
    Probability of 40%
  • Visibility: 5000 meters
  • Other: Mist
  • From 29 September at 22:00 UTC, to day 29 of the month at 23:00 UTC
    Probability of 30%
  • Visibility: 4000 meters
  • Other: Mist